Time;durP1;ratioP1;P1;durP2;ratioP2;P2;SDS_P1;SDS_P2;PMS_P1;PMS_P2;Temp;Humidity;BMP_temperature;BMP_pressure;BME280_temperature;BME280_humidity;BME280_pressure;Samples;Min_cycle;Max_cycle;Signal;HPM_P1;HPM_P2
2022/04/21 00:00:19;;;;;;;8.93;4.53;;;;;;;12.70;51.24;101297.06;4898297;29;20041;-48
2022/04/21 00:02:47;;;;;;;11.25;4.88;;;;;;;12.70;51.63;101296.22;4900368;29;20044;-45
2022/04/21 00:05:15;;;;;;;10.63;4.90;;;;;;;12.73;51.22;101287.50;4900452;29;20093;-43
2022/04/21 00:07:43;;;;;;;7.82;4.60;;;;;;;12.71;51.16;101293.22;4898687;29;20066;-43
2022/04/21 00:10:11;;;;;;;9.88;4.47;;;;;;;12.70;51.41;101297.06;4900425;29;20411;-43
2022/04/21 00:12:39;;;;;;;8.50;4.82;;;;;;;12.69;52.07;101295.41;4882980;29;20136;-43
2022/04/21 00:15:07;;;;;;;8.02;4.72;;;;;;;12.62;51.86;101283.91;4900310;29;20049;-43
2022/04/21 00:17:35;;;;;;;9.38;5.07;;;;;;;12.57;52.01;101290.19;4896832;29;20044;-43
2022/04/21 00:20:03;;;;;;;8.48;4.88;;;;;;;12.53;52.27;101285.50;4905403;29;20394;-43
2022/04/21 00:23:33;;;;;;;9.60;4.57;;;;;;;12.52;52.02;101289.34;4922465;29;20412;-47
2022/04/21 00:25:29;;;;;;;8.63;4.80;;;;;;;12.47;51.79;101287.44;4907564;29;20519;-46
2022/04/21 00:27:57;;;;;;;9.55;4.90;;;;;;;12.45;52.72;101277.84;4898058;29;20143;-50
2022/04/21 00:30:25;;;;;;;9.80;5.45;;;;;;;12.45;52.14;101286.06;4900500;29;20461;-49
2022/04/21 00:32:53;;;;;;;12.15;4.90;;;;;;;12.41;53.06;101287.66;4898474;29;20100;-48
2022/04/21 00:35:25;;;;;;;8.85;4.60;;;;;;;12.37;53.16;101287.41;4900370;29;20049;-49
2022/04/21 00:37:57;;;;;;;9.93;4.65;;;;;;;12.30;52.86;101292.31;4892181;29;20045;-51
2022/04/21 00:40:27;;;;;;;8.20;4.22;;;;;;;12.22;52.96;101293.63;4897444;29;20079;-49
2022/04/21 00:42:56;;;;;;;9.82;4.80;;;;;;;12.13;52.90;101282.41;4898799;29;20044;-48
2022/04/21 00:45:24;;;;;;;7.05;4.18;;;;;;;12.10;53.73;101291.13;4899518;29;20049;-49
2022/04/21 00:47:53;;;;;;;7.80;4.55;;;;;;;12.04;53.38;101288.63;4895573;29;20105;-50
2022/04/21 00:50:29;;;;;;;8.25;4.80;;;;;;;12.01;53.09;101284.53;4895632;29;20037;-50
2022/04/21 00:52:58;;;;;;;7.57;4.43;;;;;;;12.02;52.99;101285.34;4897153;29;20067;-46
2022/04/21 00:55:26;;;;;;;12.50;4.72;;;;;;;12.00;53.85;101282.06;4898554;29;20055;-50
2022/04/21 00:57:55;;;;;;;9.13;4.75;;;;;;;12.04;53.59;101277.72;4888296;29;20128;-51
2022/04/21 01:00:23;;;;;;;9.13;5.00;;;;;;;12.06;53.13;101281.81;4879940;29;20049;-50
2022/04/21 01:02:52;;;;;;;10.13;4.75;;;;;;;12.03;53.44;101285.09;4878876;29;20144;-48
2022/04/21 01:05:32;;;;;;;9.95;5.00;;;;;;;11.91;53.88;101285.31;4891896;29;20052;-48
2022/04/21 01:08:05;;;;;;;13.23;4.82;;;;;;;11.84;54.60;101284.69;4891360;29;20132;-47
2022/04/21 01:10:36;;;;;;;8.88;4.55;;;;;;;11.76;54.72;101285.22;4893138;29;20463;-44
2022/04/21 01:13:06;;;;;;;7.03;4.50;;;;;;;11.65;54.69;101280.75;4899290;29;20051;-48
2022/04/21 01:15:35;;;;;;;9.82;4.88;;;;;;;11.62;54.82;101281.31;4899520;29;20571;-46
2022/04/21 01:18:03;;;;;;;11.82;4.43;;;;;;;11.65;55.48;101276.13;4897497;29;20060;-47
2022/04/21 01:20:31;;;;;;;12.50;4.38;;;;;;;11.70;54.25;101278.06;4894265;29;20079;-49
2022/04/21 01:22:59;;;;;;;9.18;4.63;;;;;;;11.73;54.48;101282.97;4895915;29;20070;-52
2022/04/21 01:25:27;;;;;;;10.48;5.10;;;;;;;11.65;54.47;101278.84;4899413;29;20052;-49
2022/04/21 01:27:59;;;;;;;8.35;4.82;;;;;;;11.67;54.65;101278.59;4881695;29;20485;-48
2022/04/21 01:30:26;;;;;;;9.52;5.00;;;;;;;11.68;53.98;101272.03;4906827;29;20041;-50
2022/04/21 01:32:54;;;;;;;8.52;4.65;;;;;;;11.54;54.89;101270.84;4891435;29;20041;-48
2022/04/21 01:35:22;;;;;;;9.95;5.03;;;;;;;11.49;54.84;101275.19;4899240;29;20045;-49
2022/04/21 01:43:27;;;;;;;10.20;4.70;;;;;;;11.24;55.90;101264.13;4898989;29;20070;-50
2022/04/21 01:45:55;;;;;;;8.88;4.63;;;;;;;11.29;55.88;101258.69;4897943;29;20147;-48
2022/04/21 01:48:24;;;;;;;8.27;4.80;;;;;;;11.33;55.70;101257.09;4887462;29;20116;-47
2022/04/21 01:50:51;;;;;;;10.05;4.75;;;;;;;11.30;55.82;101265.78;4898048;29;20045;-47
2022/04/21 01:53:19;;;;;;;8.80;4.50;;;;;;;11.18;55.78;101271.44;4898724;29;20504;-44
2022/04/21 01:55:47;;;;;;;7.93;4.93;;;;;;;11.09;56.25;101262.91;4897452;29;20489;-51
2022/04/21 01:58:14;;;;;;;11.25;5.22;;;;;;;11.04;56.22;101262.03;4880535;29;20045;-45
2022/04/21 02:00:42;;;;;;;7.32;4.70;;;;;;;11.04;56.72;101271.06;4896401;29;20044;-46
2022/04/21 02:03:10;;;;;;;6.85;4.88;;;;;;;11.02;56.33;101262.31;4898638;29;20056;-47
2022/04/21 02:05:38;;;;;;;9.98;4.82;;;;;;;11.02;56.45;101272.41;4894175;29;20045;-47
2022/04/21 02:08:07;;;;;;;9.82;5.50;;;;;;;10.99;56.37;101262.84;4878636;29;20060;-43
2022/04/21 02:10:35;;;;;;;7.40;5.05;;;;;;;10.93;56.21;101263.06;4898552;29;20140;-49
2022/04/21 02:13:02;;;;;;;10.43;5.45;;;;;;;10.93;56.01;101261.16;4896632;29;20076;-51
2022/04/21 02:15:30;;;;;;;9.13;4.70;;;;;;;10.84;56.35;101260.78;4898555;29;20053;-49
2022/04/21 02:17:59;;;;;;;9.88;5.00;;;;;;;10.82;56.08;101253.94;4889719;29;20048;-49
2022/04/21 02:20:26;;;;;;;8.25;4.90;;;;;;;10.84;55.93;101265.41;4897963;29;20049;-52
2022/04/21 02:22:54;;;;;;;8.32;4.63;;;;;;;10.81;55.89;101261.31;4898318;29;20056;-50
2022/04/21 02:25:21;;;;;;;9.50;5.43;;;;;;;10.76;56.04;101263.19;4898449;29;20042;-51
2022/04/21 02:27:50;;;;;;;8.25;4.93;;;;;;;10.80;55.82;101261.56;4883274;29;20051;-43
2022/04/21 02:30:19;;;;;;;8.35;5.00;;;;;;;10.77;55.67;101265.63;4897091;29;20111;-44
2022/04/21 02:32:47;;;;;;;10.77;5.15;;;;;;;10.78;55.94;101267.28;4899013;29;20515;-46
2022/04/21 02:35:15;;;;;;;9.52;4.80;;;;;;;10.88;55.88;101261.09;4897140;29;20049;-46
2022/04/21 02:37:47;;;;;;;8.77;5.20;;;;;;;10.99;55.28;101257.38;4885786;29;20049;-53
2022/04/21 02:40:15;;;;;;;9.88;4.90;;;;;;;11.00;54.72;101256.28;4895884;29;20072;-47
2022/04/21 02:42:44;;;;;;;8.88;5.30;;;;;;;10.98;55.06;101261.19;4898206;29;20052;-46
2022/04/21 02:45:12;;;;;;;8.88;5.18;;;;;;;10.95;55.19;101266.34;4898141;29;20128;-44
2022/04/21 02:47:42;;;;;;;9.13;4.90;;;;;;;10.94;54.85;101256.50;4883002;29;20114;-53
2022/04/21 02:50:12;;;;;;;12.18;5.80;;;;;;;10.88;54.91;101255.66;4896918;29;20067;-51
2022/04/21 02:52:40;;;;;;;10.45;5.25;;;;;;;10.88;54.85;101264.66;4896943;29;20049;-49
2022/04/21 02:57:56;;;;;;;9.73;5.88;;;;;;;10.79;55.38;101259.94;4882731;29;20053;-53
2022/04/21 03:00:24;;;;;;;11.23;5.38;;;;;;;10.79;55.29;101262.66;4897812;29;20046;-49
2022/04/21 03:02:52;;;;;;;8.60;5.20;;;;;;;10.79;55.35;101259.94;4894013;29;20044;-44
2022/04/21 03:05:20;;;;;;;11.32;5.50;;;;;;;10.83;55.18;101263.78;4897785;29;20055;-47
2022/04/21 03:07:47;;;;;;;8.23;5.20;;;;;;;10.80;54.66;101265.13;4890748;29;20051;-47
2022/04/21 03:10:15;;;;;;;10.07;5.32;;;;;;;10.79;55.11;101262.66;4898309;29;20131;-51
2022/04/21 03:12:43;;;;;;;8.45;5.18;;;;;;;10.78;55.09;101250.94;4897706;29;20052;-51
2022/04/21 03:15:12;;;;;;;7.63;5.15;;;;;;;10.78;54.92;101261.84;4871020;29;20060;-50
2022/04/21 03:17:40;;;;;;;10.25;5.35;;;;;;;10.78;54.99;101256.38;4880014;29;20057;-54
2022/04/21 03:24:18;;;;;;;9.40;5.43;;;;;;;10.75;54.57;101261.50;4896958;29;20071;-51
2022/04/21 03:25:43;;;;;;;10.38;5.47;;;;;;;10.68;54.99;101247.28;4886936;29;20497;-51
2022/04/21 03:28:11;;;;;;;7.60;4.80;;;;;;;10.60;55.11;101249.38;4891420;29;20117;-53
2022/04/21 03:30:39;;;;;;;10.30;5.40;;;;;;;10.52;55.23;101247.13;4899565;29;20123;-52
2022/04/21 03:33:07;;;;;;;8.98;5.40;;;;;;;10.54;54.98;101244.97;4901439;29;20068;-54
2022/04/21 03:35:35;;;;;;;10.98;5.57;;;;;;;10.50;55.32;101246.56;4894966;29;20033;-50
2022/04/21 03:38:02;;;;;;;7.85;5.32;;;;;;;10.49;55.19;101246.84;4888056;29;20036;-55
2022/04/21 03:40:30;;;;;;;7.47;5.03;;;;;;;10.40;55.50;101260.09;4901107;29;20052;-54
2022/04/21 03:42:58;;;;;;;11.13;5.47;;;;;;;10.43;55.69;101260.38;4900963;29;20516;-46
2022/04/21 03:45:25;;;;;;;8.77;5.53;;;;;;;10.43;55.30;101259.56;4897843;29;20411;-44
2022/04/21 03:47:53;;;;;;;8.32;4.88;;;;;;;10.38;55.43;101263.06;4900182;29;20076;-47
2022/04/21 03:50:20;;;;;;;9.07;5.30;;;;;;;10.38;55.64;101267.69;4900799;29;20051;-46
2022/04/21 03:52:48;;;;;;;8.80;5.30;;;;;;;10.42;55.50;101257.94;4901123;29;20063;-44
2022/04/21 03:55:16;;;;;;;13.05;5.15;;;;;;;10.43;55.26;101259.56;4897098;29;20041;-45
2022/04/21 03:57:43;;;;;;;9.88;5.28;;;;;;;10.43;55.72;101257.66;4889591;29;20124;-44
2022/04/21 04:00:11;;;;;;;9.80;4.72;;;;;;;10.46;55.19;101264.50;4900750;29;20037;-46
2022/04/21 04:02:39;;;;;;;9.10;5.25;;;;;;;10.52;55.18;101259.94;4899390;29;20416;-45
2022/04/21 04:05:07;;;;;;;8.23;5.15;;;;;;;10.54;54.96;101265.97;4897805;29;20041;-45
2022/04/21 04:13:07;;;;;;;11.48;5.38;;;;;;;10.41;55.25;101261.72;4899663;29;20143;-49
2022/04/21 04:15:35;;;;;;;9.65;5.05;;;;;;;10.40;55.21;101265.53;4888261;29;20073;-44
2022/04/21 04:18:02;;;;;;;9.77;5.40;;;;;;;10.38;55.19;101273.13;4890135;29;20052;-44
2022/04/21 04:20:30;;;;;;;9.82;5.72;;;;;;;10.29;55.46;101267.31;4899558;29;20059;-44
2022/04/21 04:22:57;;;;;;;11.27;5.00;;;;;;;10.20;55.70;101271.56;4900321;29;20164;-45
2022/04/21 04:25:25;;;;;;;10.23;5.53;;;;;;;10.16;56.22;101271.22;4894479;29;20049;-48
2022/04/21 04:27:53;;;;;;;11.90;5.43;;;;;;;10.18;56.28;101269.06;4893776;29;20492;-47
2022/04/21 04:30:27;;;;;;;9.68;5.40;;;;;;;10.25;55.82;101268.88;4900038;29;20100;-49
2022/04/21 04:32:55;;;;;;;7.82;5.07;;;;;;;10.29;55.37;101261.84;4900129;29;20127;-47
2022/04/21 04:35:24;;;;;;;9.30;5.18;;;;;;;10.19;55.87;101261.72;4897715;29;20040;-45
2022/04/21 04:37:52;;;;;;;12.18;5.38;;;;;;;10.05;56.04;101261.28;4896271;29;20053;-51
2022/04/21 04:40:20;;;;;;;8.90;5.25;;;;;;;9.96;56.65;101265.53;4899447;29;20045;-47
2022/04/21 04:42:48;;;;;;;7.38;5.00;;;;;;;9.85;56.73;101274.63;4898742;29;20051;-51
2022/04/21 04:48:04;;;;;;;8.65;5.13;;;;;;;9.88;57.10;101264.06;4899950;29;20049;-45
2022/04/21 04:50:32;;;;;;;9.10;5.03;;;;;;;9.96;57.12;101273.72;4893177;29;20395;-49
2022/04/21 04:53:00;;;;;;;10.07;5.35;;;;;;;10.03;56.50;101266.19;4899647;29;20496;-49
2022/04/21 04:55:30;;;;;;;8.77;4.95;;;;;;;10.08;56.30;101263.50;4880371;29;20041;-55
2022/04/21 04:57:58;;;;;;;9.88;5.25;;;;;;;10.08;55.97;101271.69;4889389;29;20468;-50
2022/04/21 05:00:28;;;;;;;8.48;4.72;;;;;;;10.02;56.16;101264.50;4899583;29;20076;-47
2022/04/21 05:02:56;;;;;;;9.10;5.38;;;;;;;9.97;56.54;101273.44;4897567;29;20049;-46
2022/04/21 05:05:24;;;;;;;9.88;5.82;;;;;;;9.87;56.97;101273.31;4895325;29;20041;-45
2022/04/21 05:07:51;;;;;;;10.10;5.70;;;;;;;9.79;57.46;101274.56;4899353;29;20147;-48
2022/04/21 05:10:19;;;;;;;10.40;5.50;;;;;;;9.76;57.60;101268.81;4897576;29;20059;-47
2022/04/21 05:12:47;;;;;;;9.55;5.15;;;;;;;9.88;57.38;101269.50;4899540;29;20053;-45
2022/04/21 05:15:15;;;;;;;8.45;5.20;;;;;;;9.99;56.99;101270.47;4889099;29;20055;-45
2022/04/21 05:17:43;;;;;;;11.20;5.97;;;;;;;9.96;56.49;101276.44;4880515;29;20055;-48
2022/04/21 05:20:26;;;;;;;11.55;5.50;;;;;;;9.80;57.27;101268.03;4880675;29;20067;-55
2022/04/21 05:22:59;;;;;;;12.95;5.78;;;;;;;9.73;57.15;101267.41;4887497;29;20044;-50
2022/04/21 05:25:31;;;;;;;12.18;5.38;;;;;;;9.65;58.08;101259.69;4881092;29;20397;-49
2022/04/21 05:27:59;;;;;;;10.32;5.47;;;;;;;9.69;57.77;101269.00;4880594;29;20060;-50
2022/04/21 05:33:14;;;;;;;;;;;;;;;9.72;58.27;101271.22;4899171;29;20052;-50
2022/04/21 05:35:42;;;;;;;8.70;5.43;;;;;;;9.77;57.59;101274.00;4894336;29;19933;-52
2022/04/21 05:38:21;;;;;;;14.30;5.52;;;;;;;9.71;58.35;101274.19;4540232;29;10003699;-52
2022/04/21 05:40:49;;;;;;;9.60;5.78;;;;;;;9.80;57.82;101262.59;4895296;29;20040;-50
2022/04/21 05:43:19;;;;;;;9.02;5.13;;;;;;;9.90;57.85;101261.09;4891748;29;20052;-51
2022/04/21 05:45:48;;;;;;;12.38;5.38;;;;;;;9.91;58.17;101263.56;4908395;29;20055;-50
2022/04/21 05:48:16;;;;;;;8.93;5.20;;;;;;;9.89;58.11;101262.19;4893907;29;20160;-50
2022/04/21 05:50:45;;;;;;;8.95;5.65;;;;;;;9.93;58.16;101260.59;4895229;29;20049;-53
2022/04/21 05:53:23;;;;;;;11.73;5.50;;;;;;;9.91;58.44;101269.03;4894617;29;20055;-48
2022/04/21 05:55:51;;;;;;;10.43;5.45;;;;;;;10.00;58.46;101269.38;4878235;29;20053;-49
2022/04/21 05:58:20;;;;;;;12.88;6.25;;;;;;;10.09;58.33;101261.59;4879706;29;20048;-49
2022/04/21 06:00:48;;;;;;;9.45;5.95;;;;;;;10.10;58.09;101266.81;4878354;29;20052;-49
2022/04/21 06:03:22;;;;;;;13.60;5.97;;;;;;;10.04;58.31;101259.66;4893792;29;20041;-43
2022/04/21 06:05:50;;;;;;;11.43;5.65;;;;;;;9.96;58.59;101266.34;4882841;29;20075;-49
2022/04/21 06:08:18;;;;;;;11.30;5.53;;;;;;;9.95;58.71;101259.25;4895014;29;20515;-47
2022/04/21 06:10:46;;;;;;;9.40;5.90;;;;;;;9.92;59.27;101265.22;4895118;29;20053;-49
2022/04/21 06:13:15;;;;;;;11.43;5.43;;;;;;;9.92;58.91;101264.41;4893727;29;20055;-47
2022/04/21 06:15:43;;;;;;;9.20;4.93;;;;;;;10.05;59.60;101263.19;4886022;29;20040;-49
2022/04/21 06:18:11;;;;;;;13.55;5.47;;;;;;;10.11;58.97;101268.44;4894569;29;20588;-50
2022/04/21 06:20:40;;;;;;;8.10;5.10;;;;;;;10.20;59.18;101269.66;4888876;29;20041;-51
2022/04/21 06:23:08;;;;;;;11.35;5.90;;;;;;;10.21;58.79;101263.09;4876463;29;20731;-51
2022/04/21 06:25:42;;;;;;;12.32;5.05;;;;;;;10.27;58.56;101263.16;4880204;29;20116;-49
2022/04/21 06:28:13;;;;;;;12.15;5.47;;;;;;;10.39;58.35;101263.88;4894588;29;20050;-50
2022/04/21 06:30:41;;;;;;;7.72;4.68;;;;;;;10.49;57.93;101261.28;4893547;29;20475;-51
2022/04/21 06:33:14;;;;;;;8.32;4.70;;;;;;;10.48;58.07;101254.16;4894243;29;20056;-50
2022/04/21 06:35:42;;;;;;;8.88;5.00;;;;;;;10.48;58.62;101250.63;4891577;29;20056;-49
2022/04/21 06:38:09;;;;;;;12.65;6.53;;;;;;;10.47;58.51;101252.53;4892218;29;20049;-49
2022/04/21 06:40:37;;;;;;;9.68;5.53;;;;;;;10.52;58.58;101252.59;4892179;29;20461;-51
2022/04/21 06:48:42;;;;;;;9.13;4.47;;;;;;;10.63;58.22;101250.78;4895439;29;20056;-50
2022/04/21 06:51:10;;;;;;;12.68;5.40;;;;;;;10.62;58.50;101249.13;4914843;29;20049;-50
2022/04/21 06:53:39;;;;;;;10.15;4.93;;;;;;;10.63;58.78;101246.16;4887147;29;20053;-51
2022/04/21 06:56:07;;;;;;;8.05;5.03;;;;;;;10.67;58.62;101243.72;4897818;29;20052;-51
2022/04/21 06:58:35;;;;;;;12.93;8.05;;;;;;;10.78;58.98;101244.66;4897529;29;20408;-50
2022/04/21 07:01:03;;;;;;;10.63;5.03;;;;;;;10.84;59.67;101238.16;4898590;29;20036;-47
2022/04/21 07:03:32;;;;;;;10.95;6.43;;;;;;;10.93;59.20;101250.25;4889662;29;20053;-50
2022/04/21 07:06:00;;;;;;;19.40;12.43;;;;;;;10.98;58.76;101241.28;4894503;29;20048;-50
2022/04/21 07:08:28;;;;;;;9.25;5.35;;;;;;;11.00;58.48;101244.56;4913758;29;20045;-51
2022/04/21 07:10:56;;;;;;;11.88;5.60;;;;;;;10.99;58.76;101246.47;4901173;29;20048;-51
2022/04/21 07:13:23;;;;;;;9.18;5.43;;;;;;;11.01;59.47;101249.75;4901362;29;20055;-50
2022/04/21 07:15:51;;;;;;;10.27;5.57;;;;;;;11.04;59.45;101246.53;4900949;29;20044;-50
2022/04/21 07:18:19;;;;;;;14.30;5.97;;;;;;;11.08;59.07;101255.81;4900861;29;20564;-52
2022/04/21 07:20:47;;;;;;;10.52;5.80;;;;;;;11.15;58.86;101254.78;4901383;29;20048;-50
2022/04/21 07:23:15;;;;;;;12.73;5.47;;;;;;;11.18;59.78;101259.69;4901112;29;20408;-50
2022/04/21 07:25:42;;;;;;;10.73;5.20;;;;;;;11.18;58.87;101260.50;4900049;29;20500;-52
2022/04/21 07:28:10;;;;;;;10.30;5.63;;;;;;;11.17;58.70;101252.63;4901204;29;20057;-48
2022/04/21 07:30:39;;;;;;;9.45;5.28;;;;;;;11.19;59.15;101261.34;4900169;29;20041;-48
2022/04/21 07:33:07;;;;;;;9.18;4.43;;;;;;;11.19;58.62;101261.34;4898336;29;20048;-53
2022/04/21 07:35:35;;;;;;;14.20;5.97;;;;;;;11.28;58.86;101266.06;4885689;29;20041;-49
2022/04/21 07:38:03;;;;;;;12.60;5.80;;;;;;;11.30;59.02;101268.50;4901163;29;20061;-50
2022/04/21 07:40:32;;;;;;;8.65;4.38;;;;;;;11.33;58.35;101268.00;4900929;29;20087;-51
2022/04/21 07:43:03;;;;;;;10.43;5.78;;;;;;;11.33;58.14;101262.56;4899808;29;20096;-48
2022/04/21 07:45:32;;;;;;;9.13;5.25;;;;;;;11.35;58.12;101260.38;4899853;29;20143;-50
2022/04/21 07:47:59;;;;;;;10.50;5.57;;;;;;;11.42;57.49;101266.41;4900380;29;20057;-49
2022/04/21 07:50:27;;;;;;;8.23;4.50;;;;;;;11.46;57.22;101264.00;4899788;29;20352;-48
2022/04/21 07:53:15;;;;;;;11.15;5.25;;;;;;;11.51;58.03;101264.84;4886762;29;20060;-46
2022/04/21 07:55:46;;;;;;;18.83;12.35;;;;;;;11.57;58.69;101262.97;4900415;29;20424;-48
2022/04/21 07:58:14;;;;;;;14.32;7.18;;;;;;;11.65;58.62;101256.19;4899452;29;20492;-51
2022/04/21 08:00:42;;;;;;;10.75;5.82;;;;;;;11.69;58.15;101265.50;4899892;29;20045;-48
2022/04/21 08:03:15;;;;;;;10.07;5.38;;;;;;;11.73;57.41;101258.41;4900570;29;20076;-50
2022/04/21 08:05:45;;;;;;;10.02;5.05;;;;;;;11.73;58.13;101264.69;4900242;29;20526;-50
2022/04/21 08:08:12;;;;;;;11.40;5.70;;;;;;;11.77;57.54;101254.06;4899520;29;20102;-51
2022/04/21 08:10:40;;;;;;;10.15;5.70;;;;;;;11.83;58.48;101261.19;4895879;29;20051;-50
2022/04/21 08:13:09;;;;;;;14.65;9.13;;;;;;;11.87;58.23;101265.06;4899842;29;20512;-47
2022/04/21 08:15:36;;;;;;;11.32;6.38;;;;;;;11.84;58.69;101262.84;4891248;29;20077;-44
2022/04/21 08:18:05;;;;;;;9.98;5.22;;;;;;;11.81;58.69;101263.38;4885988;29;20064;-45
2022/04/21 08:20:36;;;;;;;10.48;5.55;;;;;;;11.82;59.63;101265.03;4898808;29;20052;-50
2022/04/21 08:23:04;;;;;;;10.23;5.45;;;;;;;11.85;59.14;101264.47;4889878;29;20052;-46
2022/04/21 08:34:40;;;;;;;;;;;;;;;12.05;58.01;101257.50;4933609;29;20068;-48
2022/04/21 08:37:07;;;;;;;10.10;5.40;;;;;;;12.10;58.28;101258.34;4922573;29;20294;-48
2022/04/21 08:39:35;;;;;;;9.00;5.10;;;;;;;12.14;58.57;101258.63;4898237;29;20139;-49
2022/04/21 08:42:10;;;;;;;10.65;5.65;;;;;;;12.19;58.73;101257.81;4893571;29;20040;-47
2022/04/21 08:44:41;;;;;;;9.23;5.10;;;;;;;12.23;57.56;101262.47;4882169;29;20496;-48
2022/04/21 08:47:11;;;;;;;9.95;5.13;;;;;;;12.27;56.93;101260.88;4899220;29;20057;-47
2022/04/21 08:49:40;;;;;;;14.48;5.15;;;;;;;12.32;56.97;101251.88;4895960;29;20476;-48
2022/04/21 08:52:08;;;;;;;9.18;5.03;;;;;;;12.33;56.39;101251.59;4898818;29;20080;-47
2022/04/21 08:54:36;;;;;;;9.98;5.25;;;;;;;12.35;55.91;101256.78;4898481;29;20051;-49
2022/04/21 08:57:05;;;;;;;9.75;5.03;;;;;;;12.41;55.11;101252.16;4899498;29;20044;-47
2022/04/21 08:59:33;;;;;;;10.07;4.75;;;;;;;12.48;54.45;101259.03;4897051;29;20455;-46
2022/04/21 09:02:00;;;;;;;10.82;4.30;;;;;;;12.49;52.51;101246.97;4899303;29;20407;-49
2022/04/21 09:04:30;;;;;;;8.77;4.18;;;;;;;12.53;52.09;101250.81;4898146;29;20044;-49
2022/04/21 09:07:19;;;;;;;9.70;4.05;;;;;;;12.55;50.72;101245.06;4899242;29;20041;-47
2022/04/21 09:10:06;;;;;;;7.72;3.97;;;;;;;12.62;50.46;101245.63;4897808;29;20064;-47
2022/04/21 09:12:35;;;;;;;8.02;3.83;;;;;;;12.75;50.45;101244.28;4899031;29;20041;-49
2022/04/21 09:15:07;;;;;;;9.57;4.15;;;;;;;12.75;50.29;101239.66;4910586;29;20157;-48
2022/04/21 09:17:42;;;;;;;7.32;3.88;;;;;;;12.79;48.93;101240.75;4895175;29;20053;-49
2022/04/21 09:20:11;;;;;;;7.15;3.47;;;;;;;12.81;47.66;101242.38;4896768;29;20488;-50
2022/04/21 09:22:56;;;;;;;9.55;3.75;;;;;;;12.86;47.58;101234.97;4898394;29;20507;-48
2022/04/21 09:25:29;;;;;;;6.53;3.38;;;;;;;12.98;45.16;101241.00;4898842;29;20072;-47
2022/04/21 09:27:58;;;;;;;8.80;3.58;;;;;;;13.03;43.88;101236.63;4899231;29;20071;-49
2022/04/21 09:30:26;;;;;;;8.38;3.45;;;;;;;13.04;42.98;101235.56;4897557;29;20045;-48
2022/04/21 09:32:59;;;;;;;5.55;3.13;;;;;;;12.97;43.27;101233.91;4898838;29;20472;-48
2022/04/21 09:35:28;;;;;;;5.72;2.95;;;;;;;12.99;43.43;101233.63;4867178;29;20041;-49
2022/04/21 09:37:57;;;;;;;3.97;2.65;;;;;;;13.06;43.20;101223.25;4899016;29;20056;-48
2022/04/21 09:40:29;;;;;;;6.25;2.90;;;;;;;13.14;42.78;101217.19;4898191;29;20051;-48
2022/04/21 09:42:59;;;;;;;11.13;2.95;;;;;;;13.27;42.40;101224.03;4899031;29;20052;-47
2022/04/21 09:48:22;;;;;;;24.90;3.10;;;;;;;13.17;42.44;101222.13;4880524;29;20121;-50
2022/04/21 09:50:56;;;;;;;3.80;2.85;;;;;;;13.26;43.37;101224.31;4898319;29;20045;-50
2022/04/21 09:53:24;;;;;;;5.15;2.72;;;;;;;13.33;41.95;101222.13;4898384;29;20059;-50
2022/04/21 09:56:09;;;;;;;7.40;2.70;;;;;;;13.29;41.30;101215.56;4897364;29;20100;-49
2022/04/21 09:58:38;;;;;;;8.43;3.15;;;;;;;13.31;41.33;101213.38;4899714;29;20048;-51
2022/04/21 10:01:06;;;;;;;8.30;3.13;;;;;;;13.36;42.33;101213.38;4899034;29;20037;-51
2022/04/21 10:03:35;;;;;;;5.20;3.00;;;;;;;13.43;41.83;101217.44;4898581;29;20149;-48
2022/04/21 10:06:02;;;;;;;4.88;3.10;;;;;;;13.34;42.28;101212.81;4896970;29;20164;-46
2022/04/21 10:08:30;;;;;;;5.15;2.88;;;;;;;13.32;42.36;101198.59;4898236;29;20128;-48
2022/04/21 10:10:58;;;;;;;8.80;3.17;;;;;;;13.39;43.11;101191.72;4897719;29;20045;-50
2022/04/21 10:13:26;;;;;;;9.30;3.00;;;;;;;13.56;42.38;101198.78;4881669;29;20148;-47
2022/04/21 10:15:54;;;;;;;5.90;3.22;;;;;;;13.60;42.95;101195.22;4897249;29;20055;-48
2022/04/21 10:18:22;;;;;;;6.18;2.97;;;;;;;13.59;42.47;101199.06;4897909;29;20096;-49
2022/04/21 10:20:52;;;;;;;5.65;3.13;;;;;;;13.62;42.62;101197.69;4897811;29;20048;-50
2022/04/21 10:23:22;;;;;;;5.45;3.30;;;;;;;13.62;42.05;101193.03;4896552;29;20071;-51
2022/04/21 10:26:00;;;;;;;12.25;3.50;;;;;;;13.62;41.77;101187.56;4894217;29;20049;-51
2022/04/21 10:28:50;;;;;;;5.40;3.05;;;;;;;13.73;41.62;101184.78;4884378;29;20041;-51
2022/04/21 10:31:32;;;;;;;6.07;3.13;;;;;;;13.77;40.97;101183.94;4897044;29;20064;-50
2022/04/21 10:34:04;;;;;;;6.55;3.25;;;;;;;13.78;41.60;101173.78;4897922;29;20460;-54
2022/04/21 10:36:37;;;;;;;7.18;3.35;;;;;;;13.81;41.13;101173.25;4896799;29;20470;-49
2022/04/21 10:39:17;;;;;;;7.90;3.50;;;;;;;13.85;41.26;101164.19;4897912;29;20046;-50
2022/04/21 10:41:45;;;;;;;10.88;3.45;;;;;;;13.92;41.59;101169.34;4897717;29;20076;-48
2022/04/21 10:44:25;;;;;;;4.72;3.13;;;;;;;13.96;41.66;101172.34;4897577;29;20053;-50
2022/04/21 10:47:27;;;;;;;7.68;3.33;;;;;;;14.00;41.29;101171.50;4897609;29;20065;-50
2022/04/21 10:49:55;;;;;;;10.63;4.00;;;;;;;13.98;42.37;101156.44;4897215;29;20048;-45
2022/04/21 10:57:58;;;;;;;7.30;3.47;;;;;;;14.04;40.56;101145.16;4897799;29;20047;-48
2022/04/21 11:00:28;;;;;;;6.38;3.33;;;;;;;14.08;41.16;101148.16;4897486;29;20048;-48
2022/04/21 11:03:09;;;;;;;7.82;3.10;;;;;;;14.16;40.78;101146.75;4897787;29;20128;-49
2022/04/21 11:05:40;;;;;;;6.53;3.45;;;;;;;14.25;40.77;101134.06;4897892;29;20518;-52
2022/04/21 11:08:12;;;;;;;63.65;6.93;;;;;;;14.40;40.67;101147.66;4897613;29;20113;-50
2022/04/21 11:10:41;;;;;;;13.13;3.70;;;;;;;14.45;39.91;101139.38;4880745;29;20475;-51
2022/04/21 11:13:18;;;;;;;8.70;3.20;;;;;;;14.51;40.69;101142.13;4892693;29;20125;-48
2022/04/21 11:15:53;;;;;;;8.80;3.40;;;;;;;14.59;40.86;101138.78;4896811;29;20067;-50
2022/04/21 11:18:31;;;;;;;7.40;3.05;;;;;;;14.64;39.66;101138.72;4880825;29;20045;-47
2022/04/21 11:21:26;;;;;;;8.18;3.28;;;;;;;14.68;39.15;101148.03;4897423;29;20044;-50
2022/04/21 11:23:54;;;;;;;11.75;3.20;;;;;;;14.60;38.58;101134.91;4896437;29;20048;-48
2022/04/21 11:26:31;;;;;;;18.73;3.40;;;;;;;14.56;38.91;101128.41;4897688;29;20066;-50
2022/04/21 11:29:03;;;;;;;8.60;3.45;;;;;;;14.58;39.27;101129.75;4897026;29;20390;-49
2022/04/21 11:31:31;;;;;;;7.90;3.33;;;;;;;14.67;38.95;101121.69;4897389;29;20068;-49
2022/04/21 11:34:03;;;;;;;6.07;3.15;;;;;;;14.70;39.10;101110.97;4896224;29;20045;-49
2022/04/21 11:36:36;;;;;;;9.07;3.35;;;;;;;14.80;39.09;101118.28;4897507;29;20049;-48
2022/04/21 11:39:13;;;;;;;6.47;3.30;;;;;;;14.81;39.40;101108.13;4895759;29;20132;-51
2022/04/21 11:41:44;;;;;;;12.27;3.25;;;;;;;14.86;38.69;101106.19;4898144;29;20059;-50
2022/04/21 11:44:12;;;;;;;9.40;3.85;;;;;;;14.94;39.01;101098.41;4895383;29;20044;-45
2022/04/21 11:46:40;;;;;;;6.90;3.20;;;;;;;15.01;38.68;101104.34;4896053;29;20063;-48
2022/04/21 11:49:09;;;;;;;8.93;3.50;;;;;;;15.02;38.86;101100.50;4900265;29;20041;-51
2022/04/21 11:51:36;;;;;;;10.13;3.30;;;;;;;15.01;37.84;101107.09;4900916;29;20064;-51
2022/04/21 11:54:05;;;;;;;14.65;3.70;;;;;;;14.98;38.42;101097.53;4900914;29;20135;-46
2022/04/21 11:56:33;;;;;;;9.35;3.40;;;;;;;15.04;39.15;101093.63;4899638;29;20045;-46
2022/04/21 11:59:08;;;;;;;6.95;3.13;;;;;;;15.15;38.73;101102.53;4899076;29;20083;-46
2022/04/21 12:07:16;;;;;;;8.73;3.00;;;;;;;15.26;38.18;101090.34;4900077;29;20049;-49
2022/04/21 12:09:46;;;;;;;8.25;3.15;;;;;;;15.25;37.84;101088.72;4899982;29;20067;-49
2022/04/21 12:12:18;;;;;;;10.35;3.17;;;;;;;15.18;38.30;101084.69;4899515;29;20471;-50
2022/04/21 12:14:45;;;;;;;6.95;3.28;;;;;;;15.16;39.16;101082.25;4882780;29;20053;-49
2022/04/21 12:17:13;;;;;;;8.05;3.30;;;;;;;15.14;38.91;101084.47;4899544;29;20135;-49
2022/04/21 12:19:44;;;;;;;8.43;3.40;;;;;;;15.14;39.85;101078.97;4899667;29;20048;-50
2022/04/21 12:22:20;;;;;;;7.28;3.10;;;;;;;15.09;39.54;101082.59;4900158;29;20136;-50
2022/04/21 12:24:53;;;;;;;6.20;3.20;;;;;;;15.05;39.61;101081.53;4899449;29;20049;-54
2022/04/21 12:27:35;;;;;;;8.05;3.33;;;;;;;15.13;40.26;101077.34;4900101;29;20416;-45